AirNav   Air Wisconsin Up To $57,000 Bonus
 
 1420 users online  

1FA2 Advent Health Apopka Heliport
Apopka, Florida, USA

GOING TO APOPKA?


FAA INFORMATION EFFECTIVE 05 DECEMBER 2019

Location

FAA Identifier: 1FA2
Lat/Long: 28-39-00.4000N 081-32-28.8000W
28-39.006667N 081-32.480000W
28.6501111,-81.5413333
(estimated)
Elevation: 123 ft. / 37 m (estimated)
From city: 1 mile S of APOPKA, FL
Time zone: UTC -5 (UTC -4 during Daylight Saving Time)
Zip code: 32703

Heliport Operations

Heliport use: Private use. Permission required prior to landing
Activation date: 01/2015
Control tower: no
ARTCC: JACKSONVILLE CENTER
FSS: SAINT PETERSBURG FLIGHT SERVICE STATION
Attendance: 
Wind indicator: yes
Segmented circle: no

Heliport Communications

WX ASOS at ORL (13 nm SE): PHONE 407-658-6753
WX ASOS at LEE (17 nm NW): 134.325 (352-787-1565)
WX ASOS at SFB (18 nm NE): PHONE 407-321-9384
WX ASOS at MCO (18 nm SE): PHONE 407-855-5235

Nearby radio navigation aids

VOR radial/distance  VOR name  Freq  Var
ORLr301/12.6ORLANDO VORTAC112.2000E

Heliport Services

Runway Information

Helipad H1

Dimensions: 40 x 40 ft. / 12 x 12 m
Surface: concrete
Runway edge lights: PERI
Latitude: 28-39.006667N
Longitude: 081-32.480000W
Elevation: 123.0 ft.
Traffic pattern: leftleft

Heliport Ownership and Management from official FAA records

Ownership: Privately-owned
Owner: ADVENTIST HEALTH SYSTEM
900 WINDERLY PLACE, SUITE 205
MAITLAND, FL 32751
Phone 407-303-1610
Manager: RICHARD NETTLES
601 EAST ROLLING ST, BOX 161
ORLANDO, FL 32803
Phone 407-303-5615

Additional Remarks

FOR CD CTC ORLANDO APCH AT 407-852-7553.

Instrument Procedures

There are no published instrument procedures at 1FA2.

Some nearby airports with instrument procedures:

X04 - Orlando Apopka Airport (4 nm NW)
KORL - Executive Airport (13 nm SE)
X23 - Umatilla Municipal Airport (17 nm N)
KLEE - Leesburg International Airport (17 nm NW)
KSFB - Orlando Sanford International Airport (18 nm NE)
KMCO - Orlando International Airport (18 nm SE)
 
Loc | Ops | Rwys | IFR | FBO | Links
Com | Nav | Svcs | Stats | Notes
Aerial photo
No photo
 
Airport distance calculator
Flying to Advent Health Apopka Heliport? Find the distance to fly.

From to 1FA2

Sunrise and sunset
Times for 09-Dec-2019
 Local
(UTC-5)
 Zulu
(UTC)
Morning civil twilight06:4311:43
Sunrise07:0812:08
Sunset17:2922:29
Evening civil twilight17:5422:54

Current date and time
Zulu (UTC)  09-Dec-2019 19:45:53
Local (UTC-5)  09-Dec-2019 14:45:53
 
METAR
KORL 
12nm SE 
091853Z 20007KT 10SM CLR 27/16 A3006 RMK AO2 SLP184 T02720156
KLEE 
18nm NW 
091853Z 15007KT 10SM CLR 27/15 A3007 RMK AO2 SLP180 T02720150
KMCO 
18nm SE 
091853Z 15008KT 10SM FEW040 BKN300 28/16 A3006 RMK AO2 SLP177 T02780156
KSFB 
18nm E 
091853Z 18006KT 10SM CLR 27/14 A3006 RMK AO2 SLP178 T02670144
KISM 
23nm S 
091856Z 14008KT 10SM CLR 27/17 A3007 RMK AO2 SLP183 T02670172
TAF
KLEE 
18nm NW 
091729Z 0918/1018 18007KT P6SM FEW035 SCT250 FM100000 VRB03KT P6SM SCT250 TEMPO 1010/1013 4SM BR SCT003 FM101500 16008KT P6SM SCT030 SCT250
KMCO 
18nm SE 
091729Z 0918/1024 17008KT P6SM FEW035 SCT250 FM100000 VRB03KT P6SM SCT250 TEMPO 1010/1013 4SM BR SCT003 FM101500 16008KT P6SM SCT030 SCT250
KSFB 
18nm E 
091729Z 0918/1018 17008KT P6SM FEW035 SCT250 FM100000 VRB03KT P6SM SCT250 TEMPO 1010/1013 4SM BR SCT003 FM101500 16008KT P6SM SCT030 SCT250
NOTAMs
Click for the latest NOTAMs
NOTAMs are issued by the DoD/FAA and will open in a separate window not controlled by AirNav.

 

 
 

Would you like to see your business listed on this page?

 If your business provides an interesting product or service to pilots, flight crews, aircraft, or users of the Advent Health Apopka Heliport, you should consider listing it here.  To start the listing process, click on the button below
 
Add a business
 

Other Pages about Advent Health Apopka Heliport

Update a link
 
Copyright © AirNav, LLC. All rights reserved. Privacy Policy  Contact